Site contains unofficial IBTrACS data. Visit the IBTrACS Website to access archived data.

1976 Severe Tropical Cyclone VANESSA (1976015S18122)


IBTrACS version v04r00. Visit IBTrACS website for data access.
Please direct all questions to the IBTrACS Q and A forum

Storm track - Intensity - Wind Radii - Intensity Data - Source Data - All data

Summary Information

Storm ID 1976015S18122
Start Jan 15 00Z
Max Intensity 100 kt (Jan 24 00Z), 950 mb (Jan 24 00Z)
End Jan 28 01Z
ATCF IDs SH111976
Track status Best track data.

Storm track plot

Map of storm track

Intensity plots

Map of storm track

Radial wind information

No radial wind information for this storm


Position and Intensity Table

BASIN ISO_TIME_________ NATURE LAT LON WMO WIND WMO PRES BOM WIND BOM PRES DS824 WIND DS824 PRES NEUMANN WIND NEUMANN PRES
degrees north degrees east kts mb kts mb kts mb kts mb
SI 1976-01-15 00:00:00 TS -17.70 121.80
SI 01:00:00 TS -17.77 121.75 20 1000 20 1000
SI 03:00:00 TS -17.89 121.55 23 999
SI 04:00:00 TS -17.95 121.45 25 999 25 999
SI 06:00:00 TS -18.06 121.22 25 997 35 997 35 998
SI 07:00:00 TS -18.11 121.08 25 997 25 997 35 997 35 997
SI 09:00:00 TS -18.20 120.77 25 997 35 997 35 997
SI 10:00:00 TS -18.24 120.58 25 997 25 997 35 997 35 997
SI 12:00:00 TS -18.29 120.25 25 997 35 997 35 997
SI 13:00:00 TS -18.30 120.07 25 997 25 997 35 996 35 996
SI 15:00:00 TS -18.31 119.73 25 997 35 996 35 996
SI 16:00:00 TS -18.31 119.57 25 998 25 998 35 996 35 996
SI 18:00:00 TS -18.30 119.24 25 996 35 996 35 996
SI 19:00:00 TS -18.30 119.08 25 996 25 996 35 996 35 996
SI 21:00:00 TS -18.30 118.78 25 996 35 996 35 996
SI 22:00:00 TS -18.29 118.64 25 997 25 997 35 996 35 996
SI 1976-01-16 00:00:00 TS -18.26 118.39 25 997 35 997 35 996
SI 01:00:00 TS -18.24 118.29 25 997 25 997 35 997 35 996
SI 03:00:00 TS -18.21 118.15 25 997 35 997 35 996
SI 04:00:00 TS -18.19 118.09 25 997 25 997 35 997 35 996
SI 06:00:00 TS -18.15 117.98 25 997 35 998 35 997
SI 07:00:00 TS -18.12 117.92 25 998 25 998 35 997 35 997
SI 09:00:00 TS -18.09 117.79 25 997 35 997 35 997
SI 10:00:00 TS -18.07 117.73 25 997 25 997 35 997 35 997
SI 12:00:00 TS -18.05 117.61 25 997 35 997 35 997
SI 13:00:00 TS -18.05 117.56 25 997 25 997 35 997 35 997
SI 15:00:00 TS -18.07 117.47 25 997 35 997 35 997
SI 16:00:00 TS -18.09 117.42 25 997 25 997 35 997 35 997
SI 18:00:00 TS -18.11 117.34 25 997 35 998 35 997
SI 19:00:00 TS -18.13 117.29 25 998 25 998 35 997 35 996
SI 21:00:00 TS -18.18 117.20 25 995 35 997 35 996
SI 22:00:00 TS -18.20 117.15 25 995 25 995 35 996 35 996
SI 1976-01-17 00:00:00 TS -18.20 117.04 25 995 35 996 35 996
SI 01:00:00 TS -18.18 116.98 25 996 25 996 35 996 35 996
SI 03:00:00 TS -18.10 116.82 25 996 35 996 35 996
SI 04:00:00 TS -18.04 116.74 25 996 25 996 35 996 35 996
SI 06:00:00 TS -17.93 116.57 25 996 35 996 35 996
SI 07:00:00 TS -17.88 116.48 25 996 25 996 35 996 35 996
SI 09:00:00 TS -17.78 116.30 25 996 35 996 35 996
SI 10:00:00 TS -17.74 116.20 25 996 25 996 35 996 35 996
SI 12:00:00 TS -17.67 115.99 28 996 35 996 35 996
SI 13:00:00 TS -17.66 115.87 30 996 30 996 35 996 35 996
SI 15:00:00 TS -17.69 115.63 30 996 35 996 35 996
SI 16:00:00 TS -17.72 115.50 30 996 30 996 35 996 35 996
SI 18:00:00 TS -17.78 115.23 30 996 35 996 35 996
SI 19:00:00 TS -17.81 115.10 30 996 30 996 35 995 35 995
SI 21:00:00 TS -17.87 114.86 30 995 37 995 37 995
SI 22:00:00 TS -17.89 114.74 30 995 30 995 38 994 38 994
SI 1976-01-18 00:00:00 TS -17.90 114.50 30 994 40 994 40 994
SI 01:00:00 TS -17.89 114.39 30 994 30 994 40 993 40 993
SI 03:00:00 TS -17.82 114.18 30 993 42 993 42 993
SI 04:00:00 TS -17.77 114.08 30 993 30 993 43 992 43 992
SI 06:00:00 TS -17.67 113.88 33 992 45 992 45 992
SI 07:00:00 TS -17.62 113.79 35 992 35 992 45 992 45 992
SI 09:00:00 TS -17.47 113.67 35 992 45 992 45 992
SI 10:00:00 TS -17.39 113.62 35 992 35 992 45 992 45 992
SI 12:00:00 TS -17.22 113.54 35 992 45 992 45 992
SI 13:00:00 TS -17.13 113.51 35 992 35 992 45 992 45 992
SI 15:00:00 TS -16.96 113.48 35 992 45 992 45 992
SI 16:00:00 TS -16.87 113.47 35 992 35 992 45 992 45 992
SI 18:00:00 TS -16.70 113.47 35 992 45 992 45 992
SI 19:00:00 TS -16.62 113.46 35 992 35 992 45 992 45 992
SI 21:00:00 TS -16.46 113.46 35 992 45 992 45 992
SI 22:00:00 TS -16.39 113.45 35 992 35 992 45 992 45 992
SI 1976-01-19 00:00:00 TS -16.24 113.42 38 992 45 992 45 992
SI 01:00:00 TS -16.18 113.39 40 992 40 992 45 991 45 991
SI 03:00:00 TS -16.05 113.32 40 992 45 991 45 991
SI 04:00:00 TS -16.00 113.27 40 992 40 992 45 990 45 990
SI 06:00:00 TS -15.89 113.10 43 990 45 990 45 990
SI 07:00:00 TS -15.83 113.02 45 990 45 990 45 990 45 990
SI 09:00:00 TS -15.75 112.89 45 990 45 990 45 990
SI 10:00:00 TS -15.70 112.83 45 990 45 990 45 990 45 990
SI 12:00:00 TS -15.62 112.67 45 990 45 990 45 990
SI 13:00:00 TS -15.58 112.59 45 990 45 990 45 990 45 990
SI 15:00:00 TS -15.50 112.42 45 990 45 990 45 990
SI 16:00:00 TS -15.46 112.33 45 990 45 990 45 990 45 990
SI 18:00:00 TS -15.38 112.17 45 990 45 990 45 990
SI 19:00:00 TS -15.34 112.09 45 990 45 990 45 990 45 990
SI 21:00:00 TS -15.27 111.90 45 990 45 990 45 990
SI 22:00:00 TS -15.24 111.82 45 990 45 990 45 990 45 990
SI 1976-01-20 00:00:00 TS -15.17 111.69 45 990 45 990 45 990
SI 01:00:00 TS -15.14 111.64 45 990 45 990 45 989 45 989
SI 03:00:00 TS -15.07 111.57 45 990 47 989 47 989
SI 04:00:00 TS -15.04 111.54 45 990 45 990 48 988 48 988
SI 06:00:00 TS -14.97 111.49 48 988 50 988 50 988
SI 07:00:00 TS -14.94 111.46 50 988 50 988 50 987 50 987
SI 09:00:00 TS -14.89 111.42 50 988 50 987 52 987
SI 10:00:00 TS -14.86 111.40 50 988 50 988 50 986 53 986
SI 12:00:00 TS -14.81 111.37 50 986 50 986 55 986
SI 13:00:00 TS -14.78 111.35 50 986 50 986 50 986 55 986
SI 15:00:00 TS -14.72 111.31 50 986 50 986 55 986
SI 16:00:00 TS -14.69 111.29 50 986 50 986 50 986 55 986
SI 18:00:00 TS -14.65 111.24 50 986 50 986 55 986
SI 19:00:00 TS -14.63 111.22 50 986 50 986 50 985 55 985
SI 21:00:00 TS -14.59 111.17 50 984 52 985 55 985
SI 22:00:00 TS -14.57 111.15 50 984 50 984 53 984 55 984
SI 1976-01-21 00:00:00 TS -14.52 111.09 50 984 55 984 55 984
SI 01:00:00 TS -14.49 111.05 50 984 50 984 55 983 55 983
SI 03:00:00 TS -14.43 110.97 50 984 55 983 55 983
SI 04:00:00 TS -14.39 110.92 50 984 50 984 55 983 55 983
SI 06:00:00 TS -14.31 110.83 50 983 55 983 55 983
SI 07:00:00 TS -14.27 110.78 50 983 50 983 55 982 55 982
SI 09:00:00 TS -14.20 110.69 50 982 55 982 57 982
SI 10:00:00 TS -14.17 110.64 50 982 50 982 55 982 58 982
SI 12:00:00 TS -14.16 110.56 53 982 55 982 60 982
SI 13:00:00 TS -14.19 110.53 55 982 55 982 55 981 60 981
SI 15:00:00 TS -14.34 110.49 55 982 57 981 60 981
SI 16:00:00 TS -14.42 110.49 55 982 55 982 58 981 60 981
SI 18:00:00 TS -14.57 110.52 55 981 60 981 60 981
SI 19:00:00 TS -14.66 110.55 55 981 55 981 60 980 60 980
SI 21:00:00 TS -14.93 110.64 55 980 60 979 62 980
SI 22:00:00 TS -15.06 110.70 55 980 55 980 60 979 63 979
SI 1976-01-22 00:00:00 TS -15.27 110.87 58 978 60 978 65 979
SI 01:00:00 TS -15.32 110.96 60 978 60 978 61 977 65 978
SI 03:00:00 TS -15.36 111.15 60 975 65 975 67 976
SI 04:00:00 TS -15.37 111.25 60 975 60 975 66 974 68 975
SI 06:00:00 TS -15.36 111.47 63 973 70 973 70 974
SI 07:00:00 TS -15.36 111.58 65 973 65 973 70 972 70 973
SI 09:00:00 TS -15.38 111.79 68 970 72 970 72 971
SI 10:00:00 TS -15.39 111.90 70 970 70 970 73 969 73 970
SI 12:00:00 TS -15.45 112.12 73 968 75 968 75 969
SI 13:00:00 TS -15.50 112.23 75 968 75 968 75 967 75 968
SI 15:00:00 TS -15.65 112.44 75 968 75 967 77 967
SI 16:00:00 TS -15.75 112.56 75 968 75 968 75 966 78 967
SI 18:00:00 TS -15.99 112.81 75 966 75 966 80 966
SI 19:00:00 TS -16.12 112.95 75 966 75 966 75 965 80 965
SI 21:00:00 TS -16.37 113.22 78 963 77 964 82 964
SI 22:00:00 TS -16.48 113.36 80 963 80 963 78 963 83 964
SI 1976-01-23 00:00:00 TS -16.69 113.64 80 962 80 962 85 963
SI 01:00:00 TS -16.75 113.76 80 962 80 962 80 961 85 962
SI 03:00:00 TS -16.83 113.95 80 961 82 961 85 961
SI 04:00:00 TS -16.85 114.03 80 961 80 961 83 960 85 961
SI 06:00:00 TS -16.90 114.19 80 960 85 960 85 960
SI 07:00:00 TS -16.94 114.27 80 960 80 960 85 959 85 959
SI 09:00:00 TS -17.00 114.40 83 958 85 958 87 959
SI 10:00:00 TS -17.04 114.45 85 958 85 958 85 958 88 958
SI 12:00:00 TS -17.13 114.51 85 957 85 957 90 958
SI 13:00:00 TS -17.18 114.51 85 957 85 957 85 956 90 957
SI 15:00:00 TS -17.33 114.44 85 955 87 955 92 956
SI 16:00:00 TS -17.42 114.38 85 955 85 955 88 954 93 955
SI 18:00:00 TS -17.59 114.25 88 953 90 953 95 954
SI 19:00:00 TS -17.67 114.18 90 953 90 953 90 952 95 953
SI 21:00:00 TS -17.85 114.03 90 951 92 951 97 952
SI 22:00:00 TS -17.93 113.96 90 951 90 951 93 951 98 952
SI 1976-01-24 00:00:00 TS -18.09 113.87 90 950 95 950 100 951
SI 01:00:00 TS -18.16 113.83 90 950 90 950 95 950 100 950
SI 03:00:00 TS -18.29 113.77 90 950 95 950 100 950
SI 04:00:00 TS -18.35 113.75 90 951 90 951 95 950 100 950
SI 06:00:00 TS -18.48 113.71 90 951 95 951 100 950
SI 07:00:00 TS -18.53 113.69 90 951 90 951 94 951 99 950
SI 09:00:00 TS -18.65 113.66 90 952 92 953 97 951
SI 10:00:00 TS -18.71 113.65 90 953 90 953 91 953 96 951
SI 12:00:00 TS -18.85 113.62 90 954 90 955 95 953
SI 13:00:00 TS -18.94 113.60 90 955 90 955 88 956 94 953
SI 15:00:00 TS -19.14 113.58 86 957 85 958 92 955
SI 16:00:00 TS -19.25 113.57 85 958 85 958 83 959 91 956
SI 18:00:00 TS -19.46 113.52 85 85 959 80 962 90 958
SI 19:00:00 TS -19.56 113.51 80 960 80 960 78 963 88 959
SI 21:00:00 TS -19.79 113.48 80 963 75 966 85 962
SI 22:00:00 TS -19.92 113.45 80 965 80 965 73 967 83 963
SI 1976-01-25 00:00:00 TS -20.16 113.39 80 968 70 970 80 966
SI 01:00:00 TS -20.29 113.34 80 970 80 970 69 970 78 967
SI 03:00:00 TS -20.56 113.24 73 971 67 972 75 969
SI 04:00:00 TS -20.70 113.18 70 972 70 972 66 973 73 970
SI 06:00:00 TS -20.99 113.02 66 974 65 975 70 973
SI 07:00:00 TS -21.14 112.95 65 975 65 975 64 975 69 973
SI 09:00:00 TS -21.43 112.81 61 977 62 977 67 975
SI 10:00:00 TS -21.57 112.73 60 978 60 978 61 977 66 975
SI 12:00:00 TS -21.83 112.56 60 978 60 979 65 977
SI 13:00:00 TS -21.95 112.46 60 979 60 979 59 979 64 977
SI 15:00:00 TS -22.20 112.23 56 979 57 980 62 979
SI 16:00:00 TS -22.31 112.10 55 980 55 980 56 980 61 979
SI 18:00:00 TS -22.53 111.83 55 981 55 982 60 981
SI 19:00:00 TS -22.64 111.70 55 982 55 982 54 982 59 981
SI 21:00:00 TS -22.85 111.43 51 984 52 984 57 982
SI 22:00:00 TS -22.96 111.30 50 985 50 985 51 984 56 982
SI 1976-01-26 00:00:00 TS -23.18 111.10 50 985 50 986 55 984
SI 01:00:00 TS -23.30 111.02 50 986 50 986 50 986 54 984
SI 03:00:00 TS -23.54 110.90 46 987 50 987 52 985
SI 04:00:00 TS -23.66 110.86 45 988 45 988 50 987 51 985
SI 06:00:00 TS -23.94 110.79 45 988 50 988 50 987
SI 07:00:00 TS -24.08 110.75 45 988 45 988 49 988 49 987
SI 09:00:00 TS -24.37 110.68 41 989 47 989 47 988
SI 10:00:00 TS -24.51 110.65 40 990 40 990 46 989 46 988
SI 12:00:00 TS -24.81 110.59 40 990 45 991 45 990
SI 13:00:00 TS -24.96 110.55 40 991 40 991 44 991 44 990
SI 15:00:00 TS -25.26 110.45 40 991 42 992 42 991
SI 16:00:00 TS -25.42 110.40 40 992 40 992 41 992 41 991
SI 18:00:00 TS -25.74 110.30 33 993 40 994 40 993
SI 19:00:00 TS -25.91 110.25 30 994 30 994 40 994 40 993
SI 21:00:00 TS -26.26 110.16 30 994 40 994 40 993
SI 22:00:00 TS -26.43 110.13 30 994 30 994 40 994 40 993
SI 1976-01-27 00:00:00 TS -26.77 110.08 30 994 40 995 40 994
SI 01:00:00 TS -26.94 110.09 30 995 30 995 39 995 40 994
SI 03:00:00 TS -27.26 110.16 30 995 37 995 40 994
SI 04:00:00 TS -27.41 110.21 30 995 30 995 36 995 40 994
SI 06:00:00 TS -27.71 110.29 30 995 35 996 40 995
SI 07:00:00 TS -27.84 110.33 30 996 30 996 35 996 39 995
SI 09:00:00 TS -28.11 110.41 30 996 35 996 37 995
SI 10:00:00 TS -28.25 110.44 30 997 30 997 35 996 36 995
SI 12:00:00 TS -28.57 110.50 30 997 35 997 35 996
SI 13:00:00 TS -28.76 110.51 30 997 30 997 35 997 35 996
SI 15:00:00 TS -29.19 110.50 30 997 35 997 35 996
SI 16:00:00 TS -29.43 110.49 30 997 30 997 35 997 35 996
SI 18:00:00 TS -29.92 110.47 26 997 35 998 35 997
SI 19:00:00 TS -30.18 110.46 25 998 25 998 34 998 34 997
SI 21:00:00 TS -30.71 110.44 25 998 32 999 32 998
SI 22:00:00 TS -30.99 110.43 25 998 25 998 31 999 31 998
SI 1976-01-28 00:00:00 TS -31.54 110.41 25 999 30 1000 30 999
SI 01:00:00 NR -31.80 110.40 25 1000 25 1000

Source Information

Agency Information
USA bsh111976.txt
TOKYO
CMA
HKO
NEWDELHI
REUNION
BOM IDCKMSTM0S.csv:Line=10056:VANESSA
NADI
WELLINGTON
DS824 aus_area.dat:546:VANESSA
TD9636 cons_worldwide_trop_cyclone_18710101-19891231-006:Line=10062
TD9635
NEUMANN tracks.sh:Storm=457:VANESSA:BSH1176:BM463
MLC

All available IBTrACS Data

SEASON BASIN SUBBASIN ISO_TIME_________ NATURE LAT LON WMO WIND WMO PRES WMO AGENCY DIST2LAND LANDFALL IFLAG USA AGENCY USA ATCF_ID USA LAT USA LON USA SSHS BOM LAT BOM LON BOM TYPE BOM WIND BOM PRES BOM TNUM BOM CI DS824 LAT DS824 LON DS824 STAGE DS824 WIND DS824 PRES TD9636 LAT TD9636 LON TD9636 STAGE NEUMANN LAT NEUMANN LON NEUMANN CLASS NEUMANN WIND NEUMANN PRES STORM SPEED STORM DIR
Year degrees north degrees east kts mb km km degrees north degrees east 1 degrees north degrees east kts mb 1 1 degrees north degrees east kts mb degrees north degrees east degrees north degrees east kts mb kts degrees
1976 SI WA 1976-01-15 00:00:00 TS -17.70 121.80 33 33 O_________O___ jtwc_sh SH111976 -17.70 121.80 -1 -17.70 121.80 2 5 214
1976 SI WA 01:00:00 TS -17.77 121.75 20 1000 bom 47 47 P_____O___P___ SH111976 -17.77 121.72 -1 -17.80 121.90 20 20 1000 1.00 1.00 -17.76 121.73 2 6 230
1976 SI WA 03:00:00 TS -17.89 121.55 62 62 P_____P___P___ SH111976 -17.92 121.56 -1 -17.86 121.49 20 23 999 -17.87 121.59 2 7 238
1976 SI WA 04:00:00 TS -17.95 121.45 25 999 bom 69 69 P_____O___P___ SH111976 -17.98 121.47 -1 -17.90 121.30 20 25 999 1.00 -17.93 121.51 2 7 243
1976 SI WA 06:00:00 TS -18.06 121.22 76 76 O_____P__OP_O_ jtwc_sh SH111976 -18.10 121.30 -1 -18.03 120.97 20 25 997 -18.00 121.00 TC 35 997 -18.04 121.34 2 -18.00 121.30 TC 35 998 8 246
1976 SI WA 07:00:00 TS -18.11 121.08 25 997 bom 84 84 P_____O__PP_P_ SH111976 -18.15 121.21 -1 -18.10 120.80 20 25 997 1.00 -18.07 120.78 TC 35 997 -18.09 121.24 2 -18.04 121.09 TC 35 997 9 252
1976 SI WA 09:00:00 TS -18.20 120.77 104 104 P_____P__PP_P_ SH111976 -18.22 121.00 -1 -18.25 120.41 20 25 997 -18.19 120.36 TC 35 997 -18.18 121.02 2 -18.12 120.68 TC 35 997 10 255
1976 SI WA 10:00:00 TS -18.24 120.58 25 997 bom 124 124 P_____O__PP_P_ SH111976 -18.25 120.88 -1 -18.30 120.20 20 25 997 1.00 -18.24 120.16 TC 35 997 -18.23 120.89 2 -18.15 120.48 TC 35 997 10 260
1976 SI WA 12:00:00 TS -18.29 120.25 161 161 O_____P__OO_O_ jtwc_sh SH111976 -18.30 120.60 -1 -18.32 119.78 20 25 997 -18.30 119.80 TC 35 997 -18.30 120.60 2 -18.20 120.10 TC 35 997 10 263
1976 SI WA 13:00:00 TS -18.30 120.07 25 997 bom 168 168 P_____O__PP_P_ SH111976 -18.33 120.42 -1 -18.30 119.60 20 25 997 1.00 -18.31 119.64 TC 35 996 -18.33 120.43 2 -18.21 119.93 TC 35 996 10 268
1976 SI WA 15:00:00 TS -18.31 119.73 186 186 P_____P__PP_P_ SH111976 -18.37 120.02 -1 -18.23 119.31 20 25 997 -18.28 119.36 TC 35 996 -18.38 120.06 2 -18.22 119.61 TC 35 996 10 269
1976 SI WA 16:00:00 TS -18.31 119.57 25 998 bom 189 189 P_____O__PP_P_ SH111976 -18.38 119.81 -1 -18.20 119.20 20 25 998 1.00 -18.25 119.24 TC 35 996 -18.40 119.86 2 -18.22 119.47 TC 35 996 9 271
1976 SI WA 18:00:00 TS -18.30 119.24 200 200 O_____P__OP_O_ jtwc_sh SH111976 -18.40 119.40 -1 -18.19 118.99 20 25 996 -18.20 119.00 TC 35 996 -18.42 119.46 2 -18.20 119.20 TC 35 996 9 270
1976 SI WA 19:00:00 TS -18.30 119.08 25 996 bom 201 201 P_____O__PP_P_ SH111976 -18.41 119.20 -1 -18.20 118.90 20 25 996 1.00 -18.18 118.87 TC 35 996 -18.43 119.26 2 -18.19 119.07 TC 35 996 9 271
1976 SI WA 21:00:00 TS -18.30 118.78 203 203 P_____P__PP_P_ SH111976 -18.42 118.83 -1 -18.21 118.71 20 25 996 -18.15 118.62 TC 35 996 -18.43 118.88 2 -18.16 118.82 TC 35 996 8 272
1976 SI WA 22:00:00 TS -18.29 118.64 25 997 bom 208 208 P_____O__PP_P_ SH111976 -18.41 118.67 -1 -18.20 118.60 20 25 997 1.00 -18.13 118.50 TC 35 996 -18.42 118.71 2 -18.14 118.71 TC 35 996 8 276
1976 SI WA 1976-01-16 00:00:00 TS -18.26 118.39 214 214 O_____P__OO_O_ jtwc_sh SH111976 -18.40 118.40 -1 -18.13 118.32 20 25 997 -18.10 118.30 TC 35 997 -18.40 118.40 2 -18.10 118.50 TC 35 996 7 278
1976 SI WA 01:00:00 TS -18.24 118.29 25 997 bom 228 228 P_____O__PP_P_ SH111976 -18.39 118.31 -1 -18.10 118.20 20 25 997 1.00 1.00 -18.08 118.22 TC 35 997 -18.38 118.29 2 -18.08 118.40 TC 35 996 5 282
1976 SI WA 03:00:00 TS -18.21 118.15 237 237 P_____P__PP_P_ SH111976 -18.36 118.21 -1 -18.10 118.06 20 25 997 -18.04 118.08 TC 35 997 -18.34 118.12 2 -18.04 118.23 TC 35 996 4 284
1976 SI WA 04:00:00 TS -18.19 118.09 25 997 bom 237 237 P_____O__PP_P_ SH111976 -18.35 118.17 -1 -18.10 118.00 20 25 997 1.00 -18.03 118.02 TC 35 997 -18.31 118.05 2 -18.03 118.15 TC 35 996 3 292
1976 SI WA 06:00:00 TS -18.15 117.98 251 251 O_____P__OP_O_ jtwc_sh SH111976 -18.30 118.10 -1 -18.03 117.87 20 25 997 -18.00 117.90 TC 35 998 -18.25 117.94 2 -18.00 118.00 TC 35 997 4 293
1976 SI WA 07:00:00 TS -18.12 117.92 25 998 bom 256 256 P_____O__PP_P_ SH111976 -18.27 118.04 -1 -18.00 117.80 20 25 998 1.50 -17.99 117.83 TC 35 997 -18.22 117.89 2 -17.99 117.92 TC 35 997 4 289
1976 SI WA 09:00:00 TS -18.09 117.79 259 259 P_____P__PP_P_ SH111976 -18.19 117.90 -1 -17.99 117.67 20 25 997 -17.99 117.69 TC 35 997 -18.16 117.81 2 -17.98 117.78 TC 35 997 4 286
1976 SI WA 10:00:00 TS -18.07 117.73 25 997 bom 260 260 P_____O__PP_P_ SH111976 -18.16 117.83 -1 -18.00 117.60 20 25 997 1.50 -17.99 117.63 TC 35 997 -18.14 117.78 2 -17.99 117.71 TC 35 997 4 282
1976 SI WA 12:00:00 TS -18.05 117.61 273 273 O_____P__OO_O_ jtwc_sh SH111976 -18.10 117.70 -1 -17.99 117.46 20 25 997 -18.00 117.50 TC 35 997 -18.10 117.70 2 -18.00 117.60 TC 35 997 3 277
1976 SI WA 13:00:00 TS -18.05 117.56 25 997 bom 273 264 P_____O__PP_P_ SH111976 -18.09 117.65 -1 -18.00 117.40 20 25 997 1.50 -18.01 117.44 TC 35 997 -18.10 117.65 2 -18.01 117.56 TC 35 997 3 260
1976 SI WA 15:00:00 TS -18.07 117.47 264 264 P_____P__PP_P_ SH111976 -18.08 117.55 -1 -18.07 117.33 20 25 997 -18.04 117.34 TC 35 997 -18.12 117.55 2 -18.04 117.49 TC 35 997 3 254
1976 SI WA 16:00:00 TS -18.09 117.42 25 997 bom 267 267 P_____O__PP_P_ SH111976 -18.08 117.50 -1 -18.10 117.30 20 25 997 1.50 -18.06 117.29 TC 35 997 -18.13 117.49 2 -18.06 117.46 TC 35 997 3 253
1976 SI WA 18:00:00 TS -18.11 117.34 270 270 O_____P__OP_O_ jtwc_sh SH111976 -18.10 117.40 -1 -18.10 117.23 20 25 997 -18.10 117.20 TC 35 998 -18.16 117.39 2 -18.10 117.40 TC 35 997 3 251
1976 SI WA 19:00:00 TS -18.13 117.29 25 998 bom 270 263 P_____O__PP_P_ SH111976 -18.12 117.34 -1 -18.10 117.20 20 25 998 1.50 -18.13 117.17 TC 35 997 -18.18 117.33 2 -18.13 117.37 TC 35 996 3 243
1976 SI WA 21:00:00 TS -18.18 117.20 263 263 P_____P__PP_P_ SH111976 -18.16 117.22 -1 -18.17 117.13 20 25 995 -18.18 117.11 TC 35 997 -18.20 117.21 2 -18.18 117.32 TC 35 996 3 244
1976 SI WA 22:00:00 TS -18.20 117.15 25 995 bom 267 267 P_____O__PP_P_ SH111976 -18.18 117.15 -1 -18.20 117.10 20 25 995 1.50 -18.20 117.08 TC 35 996 -18.21 117.15 2 -18.20 117.28 TC 35 996 3 260
1976 SI WA 1976-01-17 00:00:00 TS -18.20 117.04 269 269 O_____P__OO_O_ jtwc_sh SH111976 -18.20 117.00 -1 -18.22 117.05 20 25 995 -18.20 117.00 TC 35 996 -18.20 117.00 2 -18.20 117.20 TC 35 996 3 275
1976 SI WA 01:00:00 TS -18.18 116.98 25 996 bom 269 268 P_____O__PP_P_ SH111976 -18.19 116.93 -1 -18.20 117.00 20 25 996 1.50 1.50 -18.17 116.95 TC 35 996 -18.17 116.92 2 -18.17 117.15 TC 35 996 5 297
1976 SI WA 03:00:00 TS -18.10 116.82 279 279 P_____P__PP_P_ SH111976 -18.13 116.77 -1 -18.08 116.80 20 25 996 -18.08 116.82 TC 35 996 -18.09 116.74 2 -18.07 117.02 TC 35 996 5 301
1976 SI WA 04:00:00 TS -18.04 116.74 25 996 bom 290 290 P_____O__PP_P_ SH111976 -18.09 116.69 -1 -18.00 116.70 20 25 996 2.00 -18.02 116.75 TC 35 996 -18.04 116.64 2 -18.01 116.95 TC 35 996 6 304
1976 SI WA 06:00:00 TS -17.93 116.57 302 302 O_____P__OP_O_ jtwc_sh SH111976 -18.00 116.50 -1 -17.86 116.56 20 25 996 -17.90 116.60 TC 35 996 -17.94 116.44 2 -17.90 116.80 TC 35 996 6 304
1976 SI WA 07:00:00 TS -17.88 116.48 25 996 bom 302 302 P_____O__PP_P_ SH111976 -17.95 116.39 -1 -17.80 116.50 20 25 996 2.00 -17.84 116.53 TC 35 996 -17.89 116.34 2 -17.86 116.73 TC 35 996 6 301
1976 SI WA 09:00:00 TS -17.78 116.30 316 316 P_____P__PP_P_ SH111976 -17.83 116.16 -1 -17.73 116.37 20 25 996 -17.71 116.38 TC 35 996 -17.80 116.13 2 -17.78 116.58 TC 35 996 6 298
1976 SI WA 10:00:00 TS -17.74 116.20 25 996 bom 328 328 P_____O__PP_P_ SH111976 -17.77 116.04 -1 -17.70 116.30 20 25 996 2.00 -17.66 116.30 TC 35 996 -17.76 116.02 2 -17.75 116.50 TC 35 996 6 290
1976 SI WA 12:00:00 TS -17.67 115.99 332 332 O_____P__OO_O_ jtwc_sh SH111976 -17.70 115.80 -1 -17.62 116.11 20 28 996 -17.60 116.10 TC 35 996 -17.70 115.80 2 -17.70 116.30 TC 35 996 6 283
1976 SI WA 13:00:00 TS -17.66 115.87 30 996 bom 335 335 P_____O__PP_P_ SH111976 -17.69 115.68 -1 -17.60 116.00 20 30 996 2.50 -17.61 115.99 TC 35 996 -17.70 115.69 2 -17.68 116.18 TC 35 996 7 266
1976 SI WA 15:00:00 TS -17.69 115.63 344 344 P_____P__PP_P_ SH111976 -17.72 115.44 -1 -17.66 115.75 20 30 996 -17.67 115.73 TC 35 996 -17.73 115.47 2 -17.67 115.92 TC 35 996 7 261
1976 SI WA 16:00:00 TS -17.72 115.50 30 996 bom 348 341 P_____O__PP_P_ SH111976 -17.74 115.33 -1 -17.70 115.60 20 30 996 2.50 -17.71 115.59 TC 35 996 -17.75 115.35 2 -17.67 115.78 TC 35 996 8 257
1976 SI WA 18:00:00 TS -17.78 115.23 350 350 O_____P__OP_O_ jtwc_sh SH111976 -17.80 115.10 -1 -17.77 115.26 20 30 996 -17.80 115.30 TC 35 996 -17.81 115.13 2 -17.70 115.50 TC 35 996 8 257
1976 SI WA 19:00:00 TS -17.81 115.10 30 996 bom 355 355 P_____O__PP_P_ SH111976 -17.82 114.99 -1 -17.80 115.10 20 30 996 2.50 -17.83 115.15 TC 35 995 -17.83 115.02 2 -17.73 115.37 TC 35 995 7 256
1976 SI WA 21:00:00 TS -17.87 114.86 356 356 P_____P__PP_P_ SH111976 -17.87 114.79 -1 -17.87 114.83 20 30 995 -17.89 114.84 TC 37 995 -17.88 114.80 2 -17.81 115.10 TC 37 995 7 257
1976 SI WA 22:00:00 TS -17.89 114.74 30 995 bom 367 367 P_____O__PP_P_ SH111976 -17.89 114.69 -1 -17.90 114.70 20 30 995 2.50 -17.90 114.69 TC 38 994 -17.89 114.70 2 -17.85 114.97 TC 38 994 7 264
1976 SI WA 1976-01-18 00:00:00 TS -17.90 114.50 379 379 O_____P__OO_O_ jtwc_sh SH111976 -17.90 114.50 -1 -17.92 114.43 20 30 994 -17.90 114.40 TC 40 994 -17.90 114.50 2 -17.90 114.70 TC 40 994 7 270
1976 SI WA 01:00:00 TS -17.89 114.39 30 994 bom 385 385 P_____O__PP_P_ SH111976 -17.89 114.41 -1 -17.90 114.30 20 30 994 2.50 2.50 -17.88 114.26 TC 40 993 -17.88 114.40 2 -17.90 114.55 TC 40 993 6 285
1976 SI WA 03:00:00 TS -17.82 114.18 405 405 P_____P__PP_P_ SH111976 -17.84 114.23 -1 -17.77 114.10 20 30 993 -17.79 114.00 TC 42 993 -17.83 114.22 2 -17.85 114.26 TC 42 993 6 291
1976 SI WA 04:00:00 TS -17.77 114.08 30 993 bom 410 410 P_____O__PP_P_ SH111976 -17.80 114.15 -1 -17.70 114.00 20 30 993 2.50 -17.74 113.89 TC 43 992 -17.79 114.13 2 -17.81 114.13 TC 43 992 6 297
1976 SI WA 06:00:00 TS -17.67 113.88 431 431 O_____P__OP_O_ jtwc_sh SH111976 -17.70 114.00 -1 -17.64 113.72 20 33 992 -17.60 113.70 TC 45 992 -17.70 113.97 2 -17.70 113.90 TC 45 992 6 300
1976 SI WA 07:00:00 TS -17.62 113.79 35 992 bom 446 446 P_____O__PP_P_ SH111976 -17.65 113.92 -1 -17.60 113.60 30 35 992 2.50 -17.53 113.62 TC 45 992 -17.64 113.89 2 -17.63 113.82 TC 45 992 6 315
1976 SI WA 09:00:00 TS -17.47 113.67 462 462 P_____P__PP_P_ SH111976 -17.53 113.77 -1 -17.41 113.52 30 35 992 -17.36 113.50 TC 45 992 -17.52 113.76 2 -17.47 113.70 TC 45 992 6 324
1976 SI WA 10:00:00 TS -17.39 113.62 35 992 bom 477 477 P_____O__PP_P_ SH111976 -17.46 113.70 -1 -17.30 113.50 30 35 992 2.50 -17.27 113.45 TC 45 992 -17.45 113.70 2 -17.38 113.66 TC 45 992 6 334
1976 SI WA 12:00:00 TS -17.22 113.54 501 501 O_____P__OO_O_ jtwc_sh SH111976 -17.30 113.60 -1 -17.09 113.43 30 35 992 -17.10 113.40 TC 45 992 -17.30 113.60 2 -17.20 113.60 TC 45 992 6 338
1976 SI WA 13:00:00 TS -17.13 113.51 35 992 bom 511 511 P_____O__PP_P_ SH111976 -17.21 113.57 -1 -17.00 113.40 30 35 992 2.50 -17.03 113.38 TC 45 992 -17.22 113.57 2 -17.11 113.57 TC 45 992 5 348
1976 SI WA 15:00:00 TS -16.96 113.48 520 520 P_____P__PP_P_ SH111976 -17.01 113.53 -1 -16.86 113.39 30 35 992 -16.89 113.38 TC 45 992 -17.04 113.52 2 -16.94 113.53 TC 45 992 5 352
1976 SI WA 16:00:00 TS -16.87 113.47 35 992 bom 529 529 P_____O__PP_P_ SH111976 -16.90 113.52 -1 -16.80 113.40 30 35 992 2.50 -16.83 113.38 TC 45 992 -16.95 113.51 2 -16.86 113.51 TC 45 992 5 356
1976 SI WA 18:00:00 TS -16.70 113.47 549 549 O_____P__OP_O_ jtwc_sh SH111976 -16.70 113.50 -1 -16.67 113.40 30 35 992 -16.70 113.40 TC 45 992 -16.75 113.49 2 -16.70 113.50 TC 45 992 5 355
1976 SI WA 19:00:00 TS -16.62 113.46 35 992 bom 558 558 P_____O__PP_P_ SH111976 -16.61 113.49 -1 -16.60 113.40 30 35 992 2.50 -16.63 113.41 TC 45 992 -16.65 113.49 2 -16.63 113.50 TC 45 992 5 358
1976 SI WA 21:00:00 TS -16.46 113.46 568 568 P_____P__PP_P_ SH111976 -16.43 113.47 -1 -16.47 113.40 30 35 992 -16.50 113.42 TC 45 992 -16.46 113.47 2 -16.49 113.52 TC 45 992 5 358
1976 SI WA 22:00:00 TS -16.39 113.45 35 992 bom 583 583 P_____O__PP_P_ SH111976 -16.35 113.46 -1 -16.40 113.40 30 35 992 2.50 -16.43 113.42 TC 45 992 -16.37 113.45 2 -16.43 113.52 TC 45 992 4 351
1976 SI WA 1976-01-19 00:00:00 TS -16.24 113.42 602 602 O_____P__OO_O_ jtwc_sh SH111976 -16.20 113.40 -1 -16.27 113.39 30 38 992 -16.30 113.40 TC 45 992 -16.20 113.40 2 -16.30 113.50 TC 45 992 4 344
1976 SI WA 01:00:00 TS -16.18 113.39 40 992 bom 602 602 P_____O__PP_P_ SH111976 -16.14 113.35 -1 -16.20 113.40 30 40 992 2.50 2.50 -16.23 113.39 TC 45 991 -16.13 113.36 2 -16.23 113.47 TC 45 991 4 335
1976 SI WA 03:00:00 TS -16.05 113.32 617 617 P_____P__PP_P_ SH111976 -16.04 113.22 -1 -16.07 113.51 30 40 992 -16.09 113.34 TC 45 991 -16.01 113.25 2 -16.09 113.38 TC 45 991 4 329
1976 SI WA 04:00:00 TS -16.00 113.27 40 992 bom 627 627 P_____O__PP_P_ SH111976 -15.99 113.15 -1 -16.00 113.50 30 40 992 2.50 -16.03 113.30 TC 45 990 -15.96 113.19 2 -16.02 113.32 TC 45 990 5 309
1976 SI WA 06:00:00 TS -15.89 113.10 647 647 O_____P__OP_O_ jtwc_sh SH111976 -15.90 113.00 -1 -15.86 113.17 30 43 990 -15.90 113.20 TC 45 990 -15.86 113.06 2 -15.90 113.20 TC 45 990 6 304
1976 SI WA 07:00:00 TS -15.83 113.02 45 990 bom 662 662 P_____O__PP_P_ SH111976 -15.85 112.94 -1 -15.80 113.00 30 45 990 3.00 -15.84 113.13 TC 45 990 -15.81 112.99 2 -15.86 113.14 TC 45 990 5 305
1976 SI WA 09:00:00 TS -15.75 112.89 678 678 P_____P__PP_P_ SH111976 -15.75 112.81 -1 -15.73 112.93 30 45 990 -15.74 112.97 TC 45 990 -15.72 112.84 2 -15.79 113.01 TC 45 990 5 305
1976 SI WA 10:00:00 TS -15.70 112.83 45 990 bom 683 683 P_____O__PP_P_ SH111976 -15.70 112.74 -1 -15.70 112.90 30 45 990 3.00 -15.69 112.88 TC 45 990 -15.68 112.76 2 -15.76 112.94 TC 45 990 5 299
1976 SI WA 12:00:00 TS -15.62 112.67 698 698 O_____P__OO_O_ jtwc_sh SH111976 -15.60 112.60 -1 -15.63 112.71 30 45 990 -15.60 112.70 TC 45 990 -15.60 112.60 2 -15.70 112.80 TC 45 990 5 298
1976 SI WA 13:00:00 TS -15.58 112.59 45 990 bom 704 704 P_____O__PP_P_ SH111976 -15.55 112.52 -1 -15.60 112.60 30 45 990 3.00 -15.56 112.62 TC 45 990 -15.55 112.51 2 -15.67 112.74 TC 45 990 5 297
1976 SI WA 15:00:00 TS -15.50 112.42 725 725 P_____P__PP_P_ SH111976 -15.44 112.36 -1 -15.53 112.39 30 45 990 -15.49 112.45 TC 45 990 -15.46 112.34 2 -15.60 112.61 TC 45 990 5 297
1976 SI WA 16:00:00 TS -15.46 112.33 45 990 bom 731 731 P_____O__PP_P_ SH111976 -15.39 112.27 -1 -15.50 112.30 30 45 990 3.00 -15.46 112.37 TC 45 990 -15.42 112.24 2 -15.57 112.54 TC 45 990 5 296
1976 SI WA 18:00:00 TS -15.38 112.17 746 746 O_____P__OP_O_ jtwc_sh SH111976 -15.30 112.10 -1 -15.43 112.17 30 45 990 -15.40 112.20 TC 45 990 -15.34 112.06 2 -15.50 112.40 TC 45 990 5 296
1976 SI WA 19:00:00 TS -15.34 112.09 45 990 bom 761 761 P_____O__PP_P_ SH111976 -15.26 112.01 -1 -15.40 112.10 30 45 990 3.00 -15.37 112.11 TC 45 990 -15.29 111.97 2 -15.47 112.31 TC 45 990 6 292
1976 SI WA 21:00:00 TS -15.27 111.90 770 761 P_____P__PP_P_ SH111976 -15.19 111.83 -1 -15.33 111.89 30 45 990 -15.30 111.93 TC 45 990 -15.21 111.81 2 -15.40 112.13 TC 45 990 6 292
1976 SI WA 22:00:00 TS -15.24 111.82 45 990 bom 761 761 P_____O__PP_P_ SH111976 -15.16 111.74 -1 -15.30 111.80 30 45 990 3.00 -15.27 111.84 TC 45 990 -15.18 111.73 2 -15.37 112.05 TC 45 990 5 296
1976 SI WA 1976-01-20 00:00:00 TS -15.17 111.69 761 750 O_____P__OO_O_ jtwc_sh SH111976 -15.10 111.60 -1 -15.23 111.72 30 45 990 -15.20 111.70 TC 45 990 -15.10 111.60 2 -15.30 111.90 TC 45 990 4 301
1976 SI WA 01:00:00 TS -15.14 111.64 45 990 bom 750 750 P_____O__PP_P_ SH111976 -15.07 111.55 -1 -15.20 111.70 30 45 990 3.00 3.00 -15.16 111.65 TC 45 989 -15.06 111.55 2 -15.27 111.85 TC 45 989 3 311
1976 SI WA 03:00:00 TS -15.07 111.57 750 739 P_____P__PP_P_ SH111976 -15.00 111.47 -1 -15.13 111.63 30 45 990 -15.09 111.57 TC 47 989 -14.99 111.47 2 -15.20 111.78 TC 47 989 3 316
1976 SI WA 04:00:00 TS -15.04 111.54 45 990 bom 739 739 P_____O__PP_P_ SH111976 -14.97 111.44 -1 -15.10 111.60 30 45 990 3.00 -15.06 111.54 TC 48 988 -14.95 111.44 2 -15.17 111.75 TC 48 988 3 324
1976 SI WA 06:00:00 TS -14.97 111.49 739 728 O_____P__OP_O_ jtwc_sh SH111976 -14.90 111.40 -1 -15.03 111.53 30 48 988 -15.00 111.50 TC 50 988 -14.88 111.39 2 -15.10 111.70 TC 50 988 2 325
1976 SI WA 07:00:00 TS -14.94 111.46 50 988 bom 728 728 P_____O__PP_P_ SH111976 -14.87 111.38 -1 -15.00 111.50 30 50 988 3.50 -14.98 111.48 TC 50 987 -14.85 111.37 2 -15.06 111.66 TC 50 987 2 320
1976 SI WA 09:00:00 TS -14.89 111.42 728 728 P_____P__PP_P_ SH111976 -14.80 111.34 -1 -15.00 111.43 30 50 988 -14.94 111.45 TC 50 987 -14.79 111.34 2 -14.99 111.59 TC 52 987 2 316
1976 SI WA 10:00:00 TS -14.86 111.40 50 988 bom 728 717 P_____O__PP_P_ SH111976 -14.77 111.33 -1 -15.00 111.40 30 50 988 3.50 -14.93 111.44 TC 50 986 -14.76 111.33 2 -14.96 111.56 TC 53 986 2 337
1976 SI WA 12:00:00 TS -14.81 111.37 717 717 O_____P__OO_O_ jtwc_sh SH111976 -14.70 111.30 -1 -14.94 111.40 30 50 986 -14.90 111.40 TC 50 986 -14.70 111.30 2 -14.90 111.50 TC 55 986 2 333
1976 SI WA 13:00:00 TS -14.78 111.35 50 986 bom 717 706 P_____O__PP_P_ SH111976 -14.66 111.28 -1 -14.90 111.40 30 50 986 3.50 -14.89 111.37 TC 50 986 -14.67 111.28 2 -14.88 111.48 TC 55 986 2 327
1976 SI WA 15:00:00 TS -14.72 111.31 706 706 P_____P__PP_P_ SH111976 -14.59 111.25 -1 -14.83 111.34 30 50 986 -14.86 111.31 TC 50 986 -14.60 111.26 2 -14.84 111.45 TC 55 986 2 330
1976 SI WA 16:00:00 TS -14.69 111.29 50 986 bom 706 706 P_____O__PP_P_ SH111976 -14.56 111.23 -1 -14.80 111.30 30 50 986 3.50 -14.84 111.27 TC 50 986 -14.57 111.25 2 -14.83 111.44 TC 55 986 2 313
1976 SI WA 18:00:00 TS -14.65 111.24 707 696 O_____P__OP_O_ jtwc_sh SH111976 -14.50 111.20 -1 -14.80 111.23 30 50 986 -14.80 111.20 TC 50 986 -14.51 111.22 2 -14.80 111.40 TC 55 986 2 311
1976 SI WA 19:00:00 TS -14.63 111.22 50 986 bom 696 696 P_____O__PP_P_ SH111976 -14.47 111.19 -1 -14.80 111.20 30 50 986 3.50 -14.78 111.17 TC 50 985 -14.49 111.21 2 -14.79 111.37 TC 55 985 2 314
1976 SI WA 21:00:00 TS -14.59 111.17 696 696 P_____P__PP_P_ SH111976 -14.43 111.17 -1 -14.74 111.13 30 50 984 -14.72 111.10 TC 52 985 -14.44 111.17 2 -14.77 111.31 TC 55 985 2 313
1976 SI WA 22:00:00 TS -14.57 111.15 50 984 bom 697 686 P_____O__PP_P_ SH111976 -14.42 111.15 -1 -14.70 111.10 30 50 984 3.50 -14.69 111.07 TC 53 984 -14.42 111.15 2 -14.76 111.27 TC 55 984 2 310
1976 SI WA 1976-01-21 00:00:00 TS -14.52 111.09 686 686 O_____P__OO_O_ jtwc_sh SH111976 -14.40 111.10 -1 -14.64 111.03 30 50 984 -14.60 111.00 TC 55 984 -14.40 111.10 2 -14.70 111.20 TC 55 984 2 306
1976 SI WA 01:00:00 TS -14.49 111.05 50 984 bom 686 676 P_____O__PP_P_ SH111976 -14.39 111.06 -1 -14.60 111.00 30 50 984 3.50 3.50 -14.54 110.97 TC 55 983 -14.39 111.05 2 -14.65 111.17 TC 55 983 3 310
1976 SI WA 03:00:00 TS -14.43 110.97 676 676 P_____P__PP_P_ SH111976 -14.39 110.96 -1 -14.48 110.93 30 50 984 -14.41 110.90 TC 55 983 -14.36 110.94 2 -14.52 111.11 TC 55 983 3 311
1976 SI WA 04:00:00 TS -14.39 110.92 50 984 bom 677 666 P_____O__PP_P_ SH111976 -14.39 110.91 -1 -14.40 110.90 30 50 984 3.50 -14.34 110.87 TC 55 983 -14.36 110.88 2 -14.45 111.07 TC 55 983 4 311
1976 SI WA 06:00:00 TS -14.31 110.83 668 668 O_____P__OP_O_ jtwc_sh SH111976 -14.40 110.80 -1 -14.20 110.83 30 50 983 -14.20 110.80 TC 55 983 -14.36 110.76 2 -14.30 111.00 TC 55 983 4 312
1976 SI WA 07:00:00 TS -14.27 110.78 50 983 bom 668 656 P_____O__PP_P_ SH111976 -14.40 110.74 -1 -14.10 110.80 30 50 983 3.50 -14.11 110.76 TC 55 982 -14.37 110.70 2 -14.21 110.95 TC 55 982 4 310
1976 SI WA 09:00:00 TS -14.20 110.69 658 658 P_____P__PP_P_ SH111976 -14.42 110.64 -1 -13.95 110.74 30 50 982 -13.94 110.68 TC 55 982 -14.40 110.60 2 -14.04 110.83 TC 57 982 3 305
1976 SI WA 10:00:00 TS -14.17 110.64 50 982 bom 660 660 P_____O__PP_P_ SH111976 -14.44 110.58 -1 -13.90 110.70 30 50 982 3.50 -13.87 110.65 TC 55 982 -14.43 110.56 2 -13.97 110.78 TC 58 982 3 284
1976 SI WA 12:00:00 TS -14.16 110.56 660 660 O_____P__OO_O_ jtwc_sh SH111976 -14.50 110.50 -1 -13.79 110.56 30 53 982 -13.80 110.60 TC 55 982 -14.50 110.50 2 -13.90 110.70 TC 60 982 2 259
1976 SI WA 13:00:00 TS -14.19 110.53 55 982 bom 662 662 P_____O__PP_P_ SH111976 -14.55 110.46 -1 -13.80 110.50 30 55 982 4.00 -13.81 110.58 TC 55 981 -14.56 110.48 2 -13.91 110.68 TC 60 981 4 203
1976 SI WA 15:00:00 TS -14.34 110.49 673 673 P_____P__PP_P_ SH111976 -14.67 110.40 -1 -14.07 110.48 30 55 982 -13.89 110.56 TC 57 981 -14.69 110.45 2 -14.02 110.66 TC 60 981 5 190
1976 SI WA 16:00:00 TS -14.42 110.49 55 982 bom 684 684 P_____O__PP_P_ SH111976 -14.74 110.38 -1 -14.20 110.50 30 55 982 4.00 -13.98 110.57 TC 58 981 -14.77 110.45 2 -14.10 110.66 TC 60 981 5 171
1976 SI WA 18:00:00 TS -14.57 110.52 706 706 O_____P__OP_O_ jtwc_sh SH111976 -14.90 110.40 -1 -14.17 110.56 30 55 981 -14.20 110.60 TC 60 981 -14.93 110.48 2 -14.30 110.70 TC 60 981 5 166
1976 SI WA 19:00:00 TS -14.66 110.55 55 981 bom 715 715 P_____O__PP_P_ SH111976 -14.99 110.43 -1 -14.20 110.60 30 55 981 4.00 -14.36 110.63 TC 60 980 -15.02 110.50 2 -14.41 110.73 TC 60 980 8 163
1976 SI WA 21:00:00 TS -14.93 110.64 737 737 P_____P__PP_P_ SH111976 -15.17 110.53 -1 -14.65 110.65 30 55 980 -14.73 110.72 TC 60 979 -15.19 110.59 2 -14.67 110.82 TC 62 980 9 160
1976 SI WA 22:00:00 TS -15.06 110.70 55 980 bom 758 756 P_____O__PP_P_ SH111976 -15.26 110.61 -1 -14.90 110.70 30 55 980 4.00 -14.91 110.78 TC 60 979 -15.26 110.65 2 -14.79 110.88 TC 63 979 8 147
1976 SI WA 1976-01-22 00:00:00 TS -15.27 110.87 777 777 O_____P__OO_O_ jtwc_sh SH111976 -15.40 110.80 -1 -15.21 110.90 30 58 978 -15.20 110.90 TC 60 978 -15.40 110.80 2 -15.00 111.00 TC 65 979 7 136
1976 SI WA 01:00:00 TS -15.32 110.96 60 978 bom 776 776 P_____O__PP_P_ SH111976 -15.44 110.91 -1 -15.30 111.00 30 60 978 4.00 4.00 -15.26 110.96 TC 61 977 -15.44 110.90 2 -15.07 111.06 TC 65 978 6 109
1976 SI WA 03:00:00 TS -15.36 111.15 786 784 P_____P__PP_P_ SH111976 -15.47 111.16 -1 -15.33 111.14 30 60 975 -15.27 111.09 TC 65 975 -15.49 111.14 2 -15.15 111.19 TC 67 976 6 99
1976 SI WA 04:00:00 TS -15.37 111.25 60 975 bom 780 773 P_____O__PP_P_ SH111976 -15.48 111.30 -1 -15.30 111.20 30 60 975 4.00 -15.25 111.16 TC 66 974 -15.50 111.28 2 -15.18 111.26 TC 68 975 6 89
1976 SI WA 06:00:00 TS -15.36 111.47 773 769 O_____P__OP_O_ jtwc_sh SH111976 -15.50 111.60 -1 -15.23 111.33 30 63 973 -15.20 111.30 TC 70 973 -15.54 111.58 2 -15.20 111.40 TC 70 974 6 89
1976 SI WA 07:00:00 TS -15.36 111.58 65 973 bom 769 763 P_____O__PP_P_ SH111976 -15.52 111.75 -1 -15.20 111.40 30 65 973 4.50 -15.18 111.36 TC 70 972 -15.55 111.73 2 -15.20 111.46 TC 70 973 6 93
1976 SI WA 09:00:00 TS -15.38 111.79 763 760 P_____P__PP_P_ SH111976 -15.57 112.06 -1 -15.19 111.53 30 68 970 -15.15 111.48 TC 72 970 -15.59 112.05 2 -15.18 111.59 TC 72 971 6 95
1976 SI WA 10:00:00 TS -15.39 111.90 70 970 bom 760 752 P_____O__PP_P_ SH111976 -15.60 112.21 -1 -15.20 111.60 40 70 970 4.50 -15.15 111.54 TC 73 969 -15.62 112.20 2 -15.17 111.65 TC 73 970 6 103
1976 SI WA 12:00:00 TS -15.45 112.12 752 737 O_____P__OO_O_ jtwc_sh SH111976 -15.70 112.50 -1 -15.18 111.73 40 73 968 -15.20 111.70 TC 75 968 -15.70 112.50 2 -15.20 111.80 TC 75 969 7 109
1976 SI WA 13:00:00 TS -15.50 112.23 75 968 bom 737 715 P_____O__PP_P_ SH111976 -15.76 112.63 -1 -15.20 111.80 40 75 968 4.50 -15.26 111.79 TC 75 967 -15.77 112.63 2 -15.25 111.88 TC 75 968 7 123
1976 SI WA 15:00:00 TS -15.65 112.44 706 700 P_____P__PP_P_ SH111976 -15.92 112.87 -1 -15.29 111.98 40 75 968 -15.44 112.00 TC 75 967 -15.94 112.88 2 -15.39 112.06 TC 77 967 8 128
1976 SI WA 16:00:00 TS -15.75 112.56 75 968 bom 694 655 P_____O__PP_P_ SH111976 -16.01 112.99 -1 -15.40 112.10 40 75 968 4.50 -15.55 112.12 TC 75 966 -16.04 113.00 2 -15.48 112.16 TC 78 967 10 134
1976 SI WA 18:00:00 TS -15.99 112.81 655 639 O_____P__OP_O_ jtwc_sh SH111976 -16.20 113.20 -1 -15.79 112.42 40 75 966 -15.80 112.40 TC 75 966 -16.23 113.23 2 -15.70 112.40 TC 80 966 11 135
1976 SI WA 19:00:00 TS -16.12 112.95 75 966 bom 639 603 P_____O__PP_P_ SH111976 -16.30 113.31 -1 -16.00 112.60 40 75 966 4.50 -15.94 112.57 TC 75 965 -16.34 113.34 2 -15.83 112.55 TC 80 965 11 134
1976 SI WA 21:00:00 TS -16.37 113.22 594 579 P_____P__PP_P_ SH111976 -16.52 113.51 -1 -16.29 112.93 40 78 963 -16.23 112.96 TC 77 964 -16.54 113.54 2 -16.12 112.89 TC 82 964 11 132
1976 SI WA 22:00:00 TS -16.48 113.36 80 963 bom 573 543 P_____O__PP_P_ SH111976 -16.63 113.61 -1 -16.40 113.10 40 80 963 5.00 -16.37 113.15 TC 78 963 -16.63 113.63 2 -16.26 113.07 TC 83 964 10 129
1976 SI WA 1976-01-23 00:00:00 TS -16.69 113.64 543 538 O_____P__OO_O_ jtwc_sh SH111976 -16.80 113.80 -1 -16.63 113.53 40 80 962 -16.60 113.50 TC 80 962 -16.80 113.80 2 -16.50 113.40 TC 85 963 9 125
1976 SI WA 01:00:00 TS -16.75 113.76 80 962 bom 523 517 P_____O__PP_P_ SH111976 -16.85 113.90 -1 -16.70 113.70 40 80 962 5.00 5.00 -16.67 113.63 TC 80 961 -16.86 113.89 2 -16.58 113.54 TC 85 962 7 115
1976 SI WA 03:00:00 TS -16.83 113.95 511 511 P_____P__PP_P_ SH111976 -16.92 114.09 -1 -16.71 113.85 40 80 961 -16.74 113.85 TC 82 961 -16.95 114.05 2 -16.70 113.79 TC 85 961 6 110
1976 SI WA 04:00:00 TS -16.85 114.03 80 961 bom 511 490 P_____O__PP_P_ SH111976 -16.95 114.17 -1 -16.70 113.90 40 80 961 5.00 -16.77 113.94 TC 83 960 -16.99 114.12 2 -16.74 113.90 TC 85 961 5 109
1976 SI WA 06:00:00 TS -16.90 114.19 490 484 O_____P__OP_O_ jtwc_sh SH111976 -17.00 114.30 -1 -16.76 114.09 40 80 960 -16.80 114.10 TC 85 960 -17.06 114.24 2 -16.80 114.10 TC 85 960 5 111
1976 SI WA 07:00:00 TS -16.94 114.27 80 960 bom 484 469 P_____O__PP_P_ SH111976 -17.04 114.35 -1 -16.80 114.20 40 80 960 5.00 -16.83 114.21 TC 85 959 -17.10 114.29 2 -16.82 114.21 TC 85 959 5 116
1976 SI WA 09:00:00 TS -17.00 114.40 469 469 P_____P__PP_P_ SH111976 -17.13 114.41 -1 -16.87 114.41 40 83 958 -16.88 114.42 TC 85 958 -17.17 114.36 2 -16.83 114.41 TC 87 959 4 120
1976 SI WA 10:00:00 TS -17.04 114.45 85 958 bom 464 454 P_____O__PP_P_ SH111976 -17.19 114.42 -1 -16.90 114.50 40 85 958 5.00 -16.91 114.50 TC 85 958 -17.21 114.39 2 -16.85 114.49 TC 88 958 3 140
1976 SI WA 12:00:00 TS -17.13 114.51 454 445 O_____P__OO_O_ jtwc_sh SH111976 -17.30 114.40 -1 -16.95 114.67 40 85 957 -17.00 114.60 TC 85 957 -17.30 114.40 2 -16.90 114.60 TC 90 958 3 160
1976 SI WA 13:00:00 TS -17.18 114.51 85 957 bom 445 435 P_____O__PP_P_ SH111976 -17.36 114.37 -1 -17.00 114.70 40 85 957 5.00 -17.07 114.60 TC 85 956 -17.36 114.39 2 -16.96 114.63 TC 90 957 4 199
1976 SI WA 15:00:00 TS -17.33 114.44 441 431 P_____P__PP_P_ SH111976 -17.49 114.28 -1 -17.19 114.60 40 85 955 -17.23 114.52 TC 87 955 -17.49 114.33 2 -17.12 114.62 TC 92 956 5 209
1976 SI WA 16:00:00 TS -17.42 114.38 85 955 bom 431 419 P_____O__PP_P_ SH111976 -17.55 114.22 -1 -17.30 114.50 40 85 955 5.00 -17.32 114.45 TC 88 954 -17.56 114.28 2 -17.21 114.60 TC 93 955 6 216
1976 SI WA 18:00:00 TS -17.59 114.25 424 414 O_____P__OP_O_ jtwc_sh SH111976 -17.70 114.10 -1 -17.50 114.31 40 88 953 -17.50 114.30 TC 90 953 -17.71 114.18 2 -17.40 114.50 TC 95 954 6 217
1976 SI WA 19:00:00 TS -17.67 114.18 90 953 bom 414 410 P_____O__PP_P_ SH111976 -17.78 114.05 -1 -17.60 114.20 40 90 953 5.50 -17.59 114.23 TC 90 952 -17.79 114.11 2 -17.49 114.43 TC 95 953 7 218
1976 SI WA 21:00:00 TS -17.85 114.03 416 407 P_____P__PP_P_ SH111976 -17.94 113.94 -1 -17.81 113.98 40 90 951 -17.77 114.09 TC 92 951 -17.95 113.98 2 -17.67 114.25 TC 97 952 7 218
1976 SI WA 22:00:00 TS -17.93 113.96 90 951 bom 407 395 P_____O__PP_P_ SH111976 -18.03 113.89 -1 -17.90 113.90 40 90 951 5.50 -17.85 114.02 TC 93 951 -18.03 113.92 2 -17.75 114.16 TC 98 952 6 212
1976 SI WA 1976-01-24 00:00:00 TS -18.09 113.87 395 391 O_____P__OO_O_ jtwc_sh SH111976 -18.20 113.80 -1 -18.05 113.89 40 90 950 -18.00 113.90 TC 95 950 -18.20 113.80 2 -17.90 114.00 TC 100 951 5 208
1976 SI WA 01:00:00 TS -18.16 113.83 90 950 bom 391 382 P_____O__PP_P_ SH111976 -18.28 113.76 -1 -18.10 113.90 40 90 950 5.50 5.50 -18.06 113.86 TC 95 950 -18.28 113.76 2 -17.96 113.96 TC 100 950 4 204
1976 SI WA 03:00:00 TS -18.29 113.77 382 382 P_____P__PP_P_ SH111976 -18.45 113.69 -1 -18.17 113.83 40 90 950 -18.17 113.82 TC 95 950 -18.44 113.68 2 -18.06 113.91 TC 100 950 4 201
1976 SI WA 04:00:00 TS -18.35 113.75 90 951 bom 379 370 P_____O__PP_P_ SH111976 -18.53 113.66 -1 -18.20 113.80 40 90 951 5.50 -18.22 113.81 TC 95 950 -18.53 113.64 2 -18.11 113.90 TC 100 950 4 198
1976 SI WA 06:00:00 TS -18.48 113.71 370 370 O_____P__OP_O_ jtwc_sh SH111976 -18.70 113.60 -1 -18.27 113.79 40 90 951 -18.30 113.80 TC 95 951 -18.69 113.57 2 -18.20 113.90 TC 100 950 4 197
1976 SI WA 07:00:00 TS -18.53 113.69 90 951 bom 370 362 P_____O__PP_P_ SH111976 -18.78 113.56 -1 -18.30 113.80 40 90 951 5.50 -18.32 113.80 TC 94 951 -18.78 113.54 2 -18.24 113.90 TC 99 950 4 193
1976 SI WA 09:00:00 TS -18.65 113.66 362 353 P_____P__PP_P_ SH111976 -18.95 113.49 -1 -18.36 113.80 40 90 952 -18.36 113.80 TC 92 953 -18.95 113.48 2 -18.33 113.90 TC 97 951 4 194
1976 SI WA 10:00:00 TS -18.71 113.65 90 953 bom 360 349 P_____O__PP_P_ SH111976 -19.03 113.46 -1 -18.40 113.80 40 90 953 5.50 -18.39 113.80 TC 91 953 -19.03 113.45 2 -18.38 113.90 TC 96 951 4 191
1976 SI WA 12:00:00 TS -18.85 113.62 338 338 O_____P__OO_O_ jtwc_sh SH111976 -19.20 113.40 -1 -18.50 113.80 40 90 954 -18.50 113.80 TC 90 955 -19.20 113.40 2 -18.50 113.90 TC 95 953 5 189
1976 SI WA 13:00:00 TS -18.94 113.60 90 955 bom 338 315 P_____O__PP_P_ SH111976 -19.28 113.38 -1 -18.60 113.80 40 90 955 5.50 -18.60 113.79 TC 88 956 -19.27 113.39 2 -18.58 113.89 TC 94 953 6 188
1976 SI WA 15:00:00 TS -19.14 113.58 315 304 P_____P__PP_P_ SH111976 -19.45 113.34 -1 -18.94 113.81 40 86 957 -18.85 113.76 TC 85 958 -19.42 113.36 2 -18.76 113.86 TC 92 955 6 186
1976 SI WA 16:00:00 TS -19.25 113.57 85 958 bom 293 284 P_____O__PP_P_ SH111976 -19.53 113.33 -1 -19.10 113.80 40 85 958 5.00 -18.99 113.75 TC 83 959 -19.50 113.35 2 -18.86 113.84 TC 91 956 6 190
1976 SI WA 18:00:00 TS -19.46 113.52 85 bom 273 273 O_____I__IP_O_ jtwc_sh SH111976 -19.70 113.30 -1 -19.30 113.70 40 85 959 5.00 -19.30 113.70 TC 80 962 -19.65 113.34 2 -19.10 113.80 TC 90 958 6 190
1976 SI WA 19:00:00 TS -19.56 113.51 80 960 bom 262 240 P_____O__PP_P_ SH111976 -19.78 113.29 -1 -19.40 113.70 40 80 960 5.00 -19.45 113.67 TC 78 963 -19.73 113.32 2 -19.23 113.79 TC 88 959 7 188
1976 SI WA 21:00:00 TS -19.79 113.48 240 229 P_____P__PP_P_ SH111976 -19.93 113.27 -1 -19.72 113.64 40 80 963 -19.75 113.61 TC 75 966 -19.90 113.29 2 -19.53 113.77 TC 85 962 7 188
1976 SI WA 22:00:00 TS -19.92 113.45 80 965 bom 229 210 P_____O__PP_P_ SH111976 -20.01 113.26 -1 -19.90 113.60 40 80 965 5.00 -19.90 113.58 TC 73 967 -19.99 113.27 2 -19.68 113.76 TC 83 963 8 192
1976 SI WA 1976-01-25 00:00:00 TS -20.16 113.39 200 189 O_____P__OO_O_ jtwc_sh SH111976 -20.20 113.20 -1 -20.17 113.53 40 80 968 -20.20 113.50 TC 70 970 -20.20 113.20 2 -20.00 113.70 TC 80 966 8 195
1976 SI WA 01:00:00 TS -20.29 113.34 80 970 bom 193 172 P_____O__PP_P_ SH111976 -20.31 113.15 -1 -20.30 113.50 40 80 970 4.50 5.00 -20.34 113.46 TC 69 970 -20.32 113.15 2 -20.15 113.65 TC 78 967 8 200
1976 SI WA 03:00:00 TS -20.56 113.24 167 157 P_____P__PP_P_ SH111976 -20.57 113.03 -1 -20.56 113.45 40 73 971 -20.61 113.36 TC 67 972 -20.59 113.04 2 -20.46 113.52 TC 75 969 9 201
1976 SI WA 04:00:00 TS -20.70 113.18 70 972 bom 157 144 P_____O__PP_P_ SH111976 -20.71 112.96 -1 -20.70 113.40 40 70 972 4.50 -20.74 113.31 TC 66 973 -20.73 112.98 2 -20.61 113.45 TC 73 970 10 205
1976 SI WA 06:00:00 TS -20.99 113.02 144 136 O_____P__OP_O_ jtwc_sh SH111976 -21.00 112.80 -1 -21.04 113.20 40 66 974 -21.00 113.20 TC 65 975 -21.02 112.83 2 -20.90 113.30 TC 70 973 10 205
1976 SI WA 07:00:00 TS -21.14 112.95 65 975 bom 144 132 P_____O__PP_P_ SH111976 -21.15 112.73 -1 -21.20 113.10 40 65 975 4.50 -21.14 113.15 TC 64 975 -21.17 112.75 2 -21.04 113.24 TC 69 973 10 205
1976 SI WA 09:00:00 TS -21.43 112.81 136 131 P_____P__PP_P_ SH111976 -21.46 112.57 -1 -21.48 112.96 40 61 977 -21.41 113.04 TC 62 977 -21.47 112.58 2 -21.31 113.12 TC 67 975 10 205
1976 SI WA 10:00:00 TS -21.57 112.73 60 978 bom 135 131 P_____O__PP_P_ SH111976 -21.61 112.49 -1 -21.60 112.90 30 60 978 4.00 -21.54 112.97 TC 61 977 -21.62 112.49 2 -21.45 113.06 TC 66 975 9 209
1976 SI WA 12:00:00 TS -21.83 112.56 135 135 O_____P__OO_O_ jtwc_sh SH111976 -21.90 112.30 -1 -21.80 112.78 30 60 978 -21.80 112.80 TC 60 979 -21.90 112.30 2 -21.70 112.90 TC 65 977 9 213
1976 SI WA 13:00:00 TS -21.95 112.46 60 979 bom 131 131 P_____O__PP_P_ SH111976 -22.03 112.19 -1 -21.90 112.70 30 60 979 4.00 -21.93 112.69 TC 59 979 -22.02 112.20 2 -21.83 112.80 TC 64 977 10 221
1976 SI WA 15:00:00 TS -22.20 112.23 150 147 P_____P__PP_P_ SH111976 -22.27 111.96 -1 -22.17 112.45 30 56 979 -22.17 112.44 TC 57 980 -22.26 111.97 2 -22.06 112.58 TC 62 979 10 223
1976 SI WA 16:00:00 TS -22.31 112.10 55 980 bom 157 155 P_____O__PP_P_ SH111976 -22.38 111.84 -1 -22.30 112.30 30 55 980 4.00 -22.28 112.30 TC 56 980 -22.37 111.86 2 -22.18 112.46 TC 61 979 10 227
1976 SI WA 18:00:00 TS -22.53 111.83 185 184 O_____P__OP_O_ jtwc_sh SH111976 -22.60 111.60 -1 -22.51 111.97 30 55 981 -22.50 112.00 TC 55 982 -22.60 111.62 2 -22.40 112.20 TC 60 981 10 229
1976 SI WA 19:00:00 TS -22.64 111.70 55 982 bom 194 194 P_____O__PP_P_ SH111976 -22.71 111.49 -1 -22.60 111.80 30 55 982 4.00 -22.60 111.84 TC 54 982 -22.71 111.50 2 -22.50 112.06 TC 59 981 10 229
1976 SI WA 21:00:00 TS -22.85 111.43 227 227 P_____P__PP_P_ SH111976 -22.94 111.27 -1 -22.80 111.45 30 51 984 -22.80 111.51 TC 52 984 -22.94 111.28 2 -22.70 111.78 TC 57 982 10 229
1976 SI WA 22:00:00 TS -22.96 111.30 50 985 bom 239 239 P_____O__PP_P_ SH111976 -23.06 111.17 -1 -22.90 111.30 30 50 985 3.50 -22.90 111.36 TC 51 984 -23.06 111.18 2 -22.80 111.64 TC 56 982 9 223
1976 SI WA 1976-01-26 00:00:00 TS -23.18 111.10 256 256 O_____P__OO_O_ jtwc_sh SH111976 -23.30 111.00 -1 -23.10 111.07 30 50 985 -23.10 111.10 TC 50 986 -23.30 111.00 2 -23.00 111.40 TC 55 984 9 218
1976 SI WA 01:00:00 TS -23.30 111.02 50 986 bom 263 260 P_____O__PP_P_ SH111976 -23.42 110.93 -1 -23.20 111.00 30 50 986 3.00 3.50 -23.21 111.01 TC 50 986 -23.43 110.93 2 -23.11 111.31 TC 54 984 8 207
1976 SI WA 03:00:00 TS -23.54 110.90 268 266 P_____P__PP_P_ SH111976 -23.68 110.82 -1 -23.38 110.92 30 46 987 -23.43 110.90 TC 50 987 -23.69 110.81 2 -23.33 111.15 TC 52 985 8 201
1976 SI WA 04:00:00 TS -23.66 110.86 45 988 bom 265 265 P_____O__PP_P_ SH111976 -23.82 110.78 -1 -23.50 110.90 30 45 988 3.00 -23.55 110.86 TC 50 987 -23.83 110.76 2 -23.45 111.10 TC 51 985 8 196
1976 SI WA 06:00:00 TS -23.94 110.79 269 265 O_____P__OP_O_ jtwc_sh SH111976 -24.10 110.70 -1 -23.83 110.83 30 45 988 -23.80 110.80 TC 50 988 -24.11 110.68 2 -23.70 111.00 TC 50 987 9 194
1976 SI WA 07:00:00 TS -24.08 110.75 45 988 bom 275 273 P_____O__PP_P_ SH111976 -24.24 110.66 -1 -24.00 110.80 30 45 988 3.00 -23.94 110.76 TC 49 988 -24.26 110.65 2 -23.82 110.96 TC 49 987 9 193
1976 SI WA 09:00:00 TS -24.37 110.68 273 273 P_____P__PP_P_ SH111976 -24.54 110.59 -1 -24.27 110.73 30 41 989 -24.23 110.70 TC 47 989 -24.55 110.58 2 -24.08 110.90 TC 47 988 9 191
1976 SI WA 10:00:00 TS -24.51 110.65 40 990 bom 273 273 P_____O__PP_P_ SH111976 -24.69 110.56 -1 -24.40 110.70 30 40 990 3.00 -24.39 110.67 TC 46 989 -24.70 110.56 2 -24.21 110.87 TC 46 988 9 192
1976 SI WA 12:00:00 TS -24.81 110.59 286 286 O_____P__OO_O_ jtwc_sh SH111976 -25.00 110.50 -1 -24.66 110.64 30 40 990 -24.70 110.60 TC 45 991 -25.00 110.50 2 -24.50 110.80 TC 45 990 9 192
1976 SI WA 13:00:00 TS -24.96 110.55 40 991 bom 300 296 P_____O__PP_P_ SH111976 -25.15 110.47 -1 -24.80 110.60 30 40 991 3.00 -24.84 110.56 TC 44 991 -25.15 110.45 2 -24.66 110.74 TC 44 990 10 196
1976 SI WA 15:00:00 TS -25.26 110.45 303 300 P_____P__PP_P_ SH111976 -25.44 110.40 -1 -25.13 110.47 30 40 991 -25.14 110.46 TC 42 992 -25.46 110.36 2 -24.99 110.60 TC 42 991 10 196
1976 SI WA 16:00:00 TS -25.42 110.40 40 992 bom 300 295 P_____O__PP_P_ SH111976 -25.59 110.37 -1 -25.30 110.40 30 40 992 3.00 -25.28 110.41 TC 41 992 -25.61 110.32 2 -25.16 110.53 TC 41 991 10 196
1976 SI WA 18:00:00 TS -25.74 110.30 303 300 O_____P__OP_O_ jtwc_sh SH111976 -25.90 110.30 -1 -25.63 110.26 30 33 993 -25.60 110.30 TC 40 994 -25.93 110.23 2 -25.50 110.40 TC 40 993 10 195
1976 SI WA 19:00:00 TS -25.91 110.25 30 994 bom 310 309 P_____O__PP_P_ SH111976 -26.06 110.26 -1 -25.80 110.20 20 30 994 2.50 -25.78 110.23 TC 40 994 -26.09 110.20 2 -25.67 110.35 TC 40 993 11 194
1976 SI WA 21:00:00 TS -26.26 110.16 308 308 P_____P__PP_P_ SH111976 -26.39 110.17 -1 -26.20 110.13 20 30 994 -26.15 110.11 TC 40 994 -26.41 110.14 2 -26.01 110.26 TC 40 993 11 191
1976 SI WA 22:00:00 TS -26.43 110.13 30 994 bom 318 318 P_____O__PP_P_ SH111976 -26.56 110.14 -1 -26.40 110.10 20 30 994 2.50 -26.34 110.05 TC 40 994 -26.57 110.12 2 -26.17 110.23 TC 40 993 10 188
1976 SI WA 1976-01-27 00:00:00 TS -26.77 110.08 322 322 O_____P__OO_O_ jtwc_sh SH111976 -26.90 110.10 -1 -26.74 110.01 20 30 994 -26.70 110.00 TC 40 995 -26.90 110.10 2 -26.50 110.20 TC 40 994 10 184
1976 SI WA 01:00:00 TS -26.94 110.09 30 995 bom 324 323 P_____O__PP_P_ SH111976 -27.07 110.11 -1 -26.90 110.00 20 30 995 2.00 2.50 -26.87 110.02 TC 39 995 -27.05 110.11 2 -26.66 110.20 TC 40 994 10 172
1976 SI WA 03:00:00 TS -27.26 110.16 327 327 P_____P__PP_P_ SH111976 -27.40 110.17 -1 -27.25 110.12 20 30 995 -27.18 110.11 TC 37 995 -27.36 110.16 2 -26.96 110.22 TC 40 994 10 168
1976 SI WA 04:00:00 TS -27.41 110.21 30 995 bom 330 330 P_____O__PP_P_ SH111976 -27.57 110.21 -1 -27.40 110.20 20 30 995 2.50 -27.33 110.17 TC 36 995 -27.52 110.20 2 -27.11 110.24 TC 40 994 9 165
1976 SI WA 06:00:00 TS -27.71 110.29 335 335 O_____P__OP_O_ jtwc_sh SH111976 -27.90 110.30 -1 -27.61 110.27 20 30 995 -27.60 110.30 TC 35 996 -27.83 110.28 2 -27.40 110.30 TC 40 995 9 166
1976 SI WA 07:00:00 TS -27.84 110.33 30 996 bom 340 337 P_____O__PP_P_ SH111976 -28.06 110.34 -1 -27.70 110.30 20 30 996 2.50 -27.71 110.35 TC 35 996 -28.00 110.32 2 -27.53 110.33 TC 39 995 8 166
1976 SI WA 09:00:00 TS -28.11 110.41 349 349 P_____P__PP_P_ SH111976 -28.38 110.41 -1 -27.89 110.37 20 30 996 -27.91 110.43 TC 35 996 -28.34 110.40 2 -27.77 110.41 TC 37 995 9 167
1976 SI WA 10:00:00 TS -28.25 110.44 30 997 bom 362 353 P_____O__PP_P_ SH111976 -28.54 110.45 -1 -28.00 110.40 20 30 997 2.50 -28.02 110.46 TC 35 996 -28.52 110.44 2 -27.90 110.44 TC 36 995 9 171
1976 SI WA 12:00:00 TS -28.57 110.50 363 363 O_____P__OO_O_ jtwc_sh SH111976 -28.90 110.50 -1 -28.23 110.48 20 30 997 -28.30 110.50 TC 35 997 -28.90 110.50 2 -28.20 110.50 TC 35 996 10 173
1976 SI WA 13:00:00 TS -28.76 110.51 30 997 bom 369 369 P_____O__PP_P_ SH111976 -29.09 110.51 -1 -28.40 110.50 20 30 997 2.50 -28.48 110.50 TC 35 997 -29.10 110.52 2 -28.38 110.51 TC 35 996 13 0
1976 SI WA 15:00:00 TS -29.19 110.50 380 380 P_____P__PP_P_ SH111976 -29.51 110.52 -1 -28.91 110.44 20 30 997 -28.92 110.47 TC 35 997 -29.53 110.54 2 -28.78 110.52 TC 35 996 14 0
1976 SI WA 16:00:00 TS -29.43 110.49 30 997 bom 388 388 P_____O__PP_P_ SH111976 -29.73 110.52 -1 -29.20 110.40 20 30 997 2.50 -29.16 110.44 TC 35 997 -29.76 110.54 2 -29.01 110.51 TC 35 996 15 0
1976 SI WA 18:00:00 TS -29.92 110.47 411 411 O_____P__OP_O_ jtwc_sh SH111976 -30.20 110.50 -1 -29.73 110.39 20 26 997 -29.70 110.40 TC 35 998 -30.22 110.52 2 -29.50 110.50 TC 35 997 15 181
1976 SI WA 19:00:00 TS -30.18 110.46 25 998 bom 425 425 P_____O__PP_P_ SH111976 -30.44 110.49 -1 -30.00 110.40 20 25 998 2.00 -29.98 110.39 TC 34 998 -30.46 110.51 2 -29.76 110.50 TC 34 997 16 182
1976 SI WA 21:00:00 TS -30.71 110.44 447 447 P_____P__PP_P_ SH111976 -30.94 110.46 -1 -30.59 110.40 20 25 998 -30.58 110.38 TC 32 999 -30.95 110.47 2 -30.32 110.49 TC 32 998 16 181
1976 SI WA 22:00:00 TS -30.99 110.43 25 998 bom 451 451 P_____O__PP_P_ SH111976 -31.19 110.44 -1 -30.90 110.40 20 25 998 2.00 -30.88 110.39 TC 31 999 -31.20 110.45 2 -30.61 110.50 TC 31 998 17 181
1976 SI WA 1976-01-28 00:00:00 TS -31.54 110.41 460 460 O_____P__OO_O_ jtwc_sh SH111976 -31.70 110.40 -1 -31.50 110.40 20 25 999 -31.50 110.40 TC 30 1000 -31.70 110.40 2 -31.20 110.50 TC 30 999 16 181
1976 SI WA 01:00:00 NR -31.80 110.40 25 1000 bom 469 ______O_______ SH111976 -1 -31.80 110.40 20 25 1000 1.00 1.50 TC 2 TC 15 0